createdAt,value
2022-08-29T00:01:41.149Z,574.4
2022-08-29T00:02:45.604Z,574.4
2022-08-29T00:03:48.567Z,574.4
2022-08-29T00:04:52.664Z,574.4
2022-08-29T00:05:56.502Z,574.7
2022-08-29T00:07:00.614Z,574.4
2022-08-29T00:08:03.102Z,574.5
2022-08-29T00:09:05.298Z,574.5
2022-08-29T00:10:07.781Z,574.3
2022-08-29T00:11:10.276Z,574.5
2022-08-29T00:12:12.264Z,574.3
2022-08-29T00:13:14.467Z,574.5
2022-08-29T00:15:21.648Z,574.2
2022-08-29T00:16:24.249Z,574.1
2022-08-29T00:17:26.444Z,574.5
2022-08-29T00:18:28.640Z,574.4
2022-08-29T00:19:30.817Z,574.3
2022-08-29T00:21:38.009Z,574.7
2022-08-29T00:22:40.480Z,574.3
2022-08-29T00:23:42.424Z,574.1
2022-08-29T00:24:44.622Z,574.1
2022-08-29T00:25:46.546Z,573.9
2022-08-29T00:26:48.750Z,573.6
2022-08-29T00:27:51.855Z,573.8
2022-08-29T00:28:54.326Z,574
2022-08-29T00:29:56.805Z,573.4
2022-08-29T00:30:59.003Z,573.4
2022-08-29T00:32:01.664Z,573.6
2022-08-29T00:33:03.636Z,573.7
2022-08-29T00:34:06.120Z,573.9
2022-08-29T00:35:08.327Z,573.8
2022-08-29T00:36:11.096Z,573.4
2022-08-29T00:37:17.047Z,573.4
2022-08-29T00:38:21.158Z,573.5
2022-08-29T00:40:35.292Z,573.1
2022-08-29T00:41:37.781Z,573.2
2022-08-29T00:42:40.251Z,573.1
2022-08-29T00:43:42.716Z,572.8
2022-08-29T00:44:45.190Z,573
2022-08-29T00:45:47.857Z,573.3
2022-08-29T00:46:50.078Z,573.5
2022-08-29T00:47:52.568Z,573.7
2022-08-29T00:48:56.348Z,573.6
2022-08-29T00:49:58.829Z,573.8
2022-08-29T00:51:01.328Z,573.9
2022-08-29T00:52:03.810Z,573.7
2022-08-29T00:53:06.308Z,573.8
2022-08-29T00:54:08.515Z,573.7
2022-08-29T00:55:10.997Z,573.7
2022-08-29T00:56:13.473Z,573.8
2022-08-29T00:57:15.689Z,573.7
2022-08-29T00:58:18.233Z,573.5
2022-08-29T00:59:20.704Z,573.6
2022-08-29T01:00:22.624Z,573.6
2022-08-29T01:01:25.450Z,574.1
2022-08-29T01:02:28.112Z,574.1
2022-08-29T01:03:30.622Z,574
2022-08-29T01:04:33.093Z,573.9
2022-08-29T01:05:35.568Z,574.5
2022-08-29T01:06:38.052Z,574.3
2022-08-29T01:07:42.738Z,574
2022-08-29T01:08:45.210Z,574.3
2022-08-29T01:09:47.727Z,574.3
2022-08-29T01:10:50.200Z,573.9
2022-08-29T01:11:52.391Z,574.3
2022-08-29T01:12:54.870Z,574
2022-08-29T01:13:57.070Z,574.2
2022-08-29T01:14:59.960Z,574.7
2022-08-29T01:16:02.182Z,574.6
2022-08-29T01:17:04.667Z,574.6
2022-08-29T01:18:06.927Z,574.4
2022-08-29T01:19:09.121Z,574.2
2022-08-29T01:20:11.319Z,574.2
2022-08-29T01:21:13.510Z,574.2
2022-08-29T01:22:15.712Z,574.5
2022-08-29T01:23:17.906Z,574.3
2022-08-29T01:24:19.816Z,574.3
2022-08-29T01:25:22.279Z,574.4
2022-08-29T01:26:24.764Z,574.5
2022-08-29T01:27:26.957Z,574.9
2022-08-29T01:28:29.167Z,574.9
2022-08-29T01:29:31.381Z,574.6
2022-08-29T01:30:33.575Z,574.8
2022-08-29T01:32:41.060Z,574.7
2022-08-29T01:33:43.531Z,574.6
2022-08-29T01:34:46.004Z,574.6
2022-08-29T01:35:48.477Z,574.3
2022-08-29T01:36:50.674Z,574.9
2022-08-29T01:37:52.862Z,574.4
2022-08-29T01:38:55.342Z,574.5
2022-08-29T01:39:58.118Z,574.3
2022-08-29T01:41:00.316Z,574.1
2022-08-29T01:42:02.511Z,574.1
2022-08-29T01:43:04.986Z,574.2
2022-08-29T01:44:07.181Z,574.5
2022-08-29T01:46:14.987Z,574.3
2022-08-29T01:48:23.064Z,574.4
2022-08-29T01:49:25.530Z,574.6
2022-08-29T01:50:27.730Z,574.6
2022-08-29T01:51:30.196Z,574.6
2022-08-29T01:52:32.672Z,574.7
2022-08-29T01:53:35.152Z,574.8
2022-08-29T01:54:37.350Z,574.9
2022-08-29T01:55:39.006Z,574.6
2022-08-29T01:56:41.324Z,575.1
2022-08-29T01:57:43.790Z,575.1
2022-08-29T01:58:45.987Z,575
2022-08-29T01:59:48.461Z,574.8
2022-08-29T02:00:51.234Z,575.2
2022-08-29T02:01:54.107Z,575.3
2022-08-29T02:02:56.344Z,575.5
2022-08-29T02:03:58.539Z,575.5
2022-08-29T02:05:01.031Z,575.4
2022-08-29T02:06:03.510Z,575.2
2022-08-29T02:08:11.632Z,574.7
2022-08-29T02:09:14.217Z,575.3
2022-08-29T02:10:16.683Z,574.9
2022-08-29T02:11:19.141Z,575.3
2022-08-29T02:12:21.348Z,574.8
2022-08-29T02:13:23.831Z,575
2022-08-29T02:14:26.020Z,575.3
2022-08-29T02:15:28.870Z,575.7
2022-08-29T02:16:31.236Z,575.1
2022-08-29T02:17:33.757Z,575.3
2022-08-29T02:18:35.946Z,575.3
2022-08-29T02:19:38.173Z,575.7
2022-08-29T02:20:40.110Z,575.3
2022-08-29T02:21:42.581Z,575.6
2022-08-29T02:22:44.803Z,575.7
2022-08-29T02:23:46.978Z,575.8
2022-08-29T02:24:49.167Z,575.6
2022-08-29T02:25:51.543Z,575.7
2022-08-29T02:26:54.024Z,575.7
2022-08-29T02:27:56.500Z,575.9
2022-08-29T02:28:58.430Z,575.9
2022-08-29T02:30:00.924Z,575.4
2022-08-29T02:31:03.434Z,575.5
2022-08-29T02:32:07.357Z,575.5
2022-08-29T02:33:10.730Z,575.7
2022-08-29T02:34:14.573Z,575.7
2022-08-29T02:35:18.665Z,575.5
2022-08-29T02:36:23.958Z,575.6
2022-08-29T02:37:28.552Z,575.3
2022-08-29T02:38:30.739Z,575.6
2022-08-29T02:39:33.224Z,575
2022-08-29T02:40:35.715Z,575.2
2022-08-29T02:41:38.190Z,575.4
2022-08-29T02:42:40.087Z,575.5
2022-08-29T02:43:42.563Z,575.7
2022-08-29T02:44:44.751Z,575.9
2022-08-29T02:45:47.222Z,576.3
2022-08-29T02:46:50.195Z,576.1
2022-08-29T02:47:52.738Z,576.2
2022-08-29T02:49:59.923Z,576.5
2022-08-29T02:51:02.111Z,576
2022-08-29T02:52:04.651Z,575.6
2022-08-29T02:53:07.163Z,575.8
2022-08-29T02:54:09.675Z,575.4
2022-08-29T02:55:12.162Z,575.5
2022-08-29T02:56:16.114Z,575.2
2022-08-29T02:57:18.308Z,575.1
2022-08-29T02:58:20.528Z,575.3
2022-08-29T02:59:23.017Z,575.3
2022-08-29T03:00:25.268Z,575.5
2022-08-29T03:01:27.941Z,575.5
2022-08-29T03:02:30.487Z,575.9
2022-08-29T03:03:33.027Z,575.8
2022-08-29T03:04:35.515Z,575.7
2022-08-29T03:05:37.986Z,575.8
2022-08-29T03:06:40.184Z,575.7
2022-08-29T03:07:42.381Z,575.4
2022-08-29T03:08:44.580Z,575.2
2022-08-29T03:09:47.060Z,575.5
2022-08-29T03:10:49.542Z,575.3
2022-08-29T03:11:51.739Z,575.7
2022-08-29T03:12:53.938Z,575
2022-08-29T03:15:01.142Z,575.5
2022-08-29T03:16:04.027Z,575.5
2022-08-29T03:17:05.962Z,575.5
2022-08-29T03:18:08.604Z,575.7
2022-08-29T03:19:10.811Z,575.3
2022-08-29T03:20:13.294Z,575.4
2022-08-29T03:21:15.502Z,575.2
2022-08-29T03:22:17.710Z,575.4
2022-08-29T03:23:19.905Z,575.5
2022-08-29T03:25:27.103Z,575.4
2022-08-29T03:26:29.298Z,575.7
2022-08-29T03:27:31.220Z,575.5
2022-08-29T03:28:33.684Z,575.4
2022-08-29T03:29:36.161Z,575.5
2022-08-29T03:30:38.622Z,575.4
2022-08-29T03:31:41.033Z,575.5
2022-08-29T03:32:44.000Z,575.3
2022-08-29T03:33:46.198Z,575.7
2022-08-29T03:34:48.678Z,575.4
2022-08-29T03:35:51.148Z,575.5
2022-08-29T03:36:52.773Z,575.7
2022-08-29T03:37:55.270Z,575.5
2022-08-29T03:38:57.185Z,575.5
2022-08-29T03:39:59.854Z,575.6
2022-08-29T03:41:02.075Z,575.2
2022-08-29T03:42:04.291Z,575.5
2022-08-29T03:43:06.765Z,575.3
2022-08-29T03:44:09.261Z,575.5
2022-08-29T03:45:11.745Z,575.1
2022-08-29T03:46:14.471Z,575.2
2022-08-29T03:47:16.990Z,574.9
2022-08-29T03:48:19.202Z,575.1
2022-08-29T03:49:21.674Z,574.8
2022-08-29T03:50:23.879Z,575.1
2022-08-29T03:52:31.367Z,574.6
2022-08-29T03:53:33.560Z,574.8
2022-08-29T03:54:36.293Z,574.7
2022-08-29T03:55:38.778Z,574.4
2022-08-29T03:56:40.961Z,574.5
2022-08-29T03:57:43.462Z,574.3
2022-08-29T04:00:56.422Z,574.2
2022-08-29T04:01:59.276Z,574
2022-08-29T04:03:02.469Z,574.4
2022-08-29T04:04:04.984Z,574.2
2022-08-29T04:06:12.462Z,574.3
2022-08-29T04:07:14.938Z,574.3
2022-08-29T04:08:18.153Z,574.6
2022-08-29T04:09:20.618Z,574.5
2022-08-29T04:10:22.892Z,574.4
2022-08-29T04:11:25.058Z,574.1
2022-08-29T04:12:27.236Z,573.9
2022-08-29T04:13:29.722Z,573.9
2022-08-29T04:14:32.203Z,573.7
2022-08-29T04:15:34.134Z,573.4
2022-08-29T04:16:36.696Z,573.6
2022-08-29T04:18:44.197Z,573.2
2022-08-29T04:19:46.397Z,573.6
2022-08-29T04:20:48.632Z,573.3
2022-08-29T04:21:51.097Z,573.6
2022-08-29T04:22:53.582Z,573.7
2022-08-29T04:23:56.050Z,573.2
2022-08-29T04:24:58.525Z,573.4
2022-08-29T04:27:05.694Z,573.3
2022-08-29T04:28:08.321Z,573.1
2022-08-29T04:29:10.578Z,573.7
2022-08-29T04:30:13.046Z,573.5
2022-08-29T04:31:15.445Z,573.4
2022-08-29T04:32:17.934Z,573.3
2022-08-29T04:34:25.408Z,573.1
2022-08-29T04:35:27.886Z,573.2
2022-08-29T04:36:30.378Z,572.9
2022-08-29T04:37:32.566Z,573
2022-08-29T04:38:34.744Z,573.1
2022-08-29T04:39:37.217Z,572.7
2022-08-29T04:40:40.188Z,572.7
2022-08-29T04:41:42.706Z,572.5
2022-08-29T04:42:45.198Z,572.4
2022-08-29T04:43:47.400Z,572.2
2022-08-29T04:44:50.012Z,572.1
2022-08-29T04:45:52.475Z,572
2022-08-29T04:46:54.847Z,571.9
2022-08-29T04:50:08.233Z,571.8
2022-08-29T04:51:10.423Z,571.8
2022-08-29T04:52:13.975Z,571.8
2022-08-29T04:53:16.447Z,571.5
2022-08-29T04:54:18.662Z,571.6
2022-08-29T04:56:26.124Z,571.5
2022-08-29T04:57:28.795Z,571.6
2022-08-29T04:58:31.928Z,571.8
2022-08-29T04:59:36.107Z,571.4
2022-08-29T05:00:38.070Z,571.9
2022-08-29T05:02:45.826Z,571.9
2022-08-29T05:03:49.119Z,571.7
2022-08-29T05:04:51.052Z,571.6
2022-08-29T05:05:53.250Z,571.4
2022-08-29T05:06:55.721Z,571.6
2022-08-29T05:07:57.938Z,571.5
2022-08-29T05:09:01.704Z,571.1
2022-08-29T05:10:03.903Z,571.6
2022-08-29T05:11:06.384Z,571.4
2022-08-29T05:13:13.858Z,571
2022-08-29T05:14:16.326Z,570.7
2022-08-29T05:15:17.988Z,571
2022-08-29T05:16:20.729Z,571
2022-08-29T05:17:22.685Z,570.9
2022-08-29T05:18:25.152Z,570.7
2022-08-29T05:20:34.090Z,570.9
2022-08-29T05:21:37.849Z,570.7
2022-08-29T05:22:40.035Z,571
2022-08-29T05:23:42.249Z,570.8
2022-08-29T05:24:44.724Z,571
2022-08-29T05:25:46.923Z,571.3
2022-08-29T05:26:49.411Z,570.8
2022-08-29T05:28:57.365Z,570.8
2022-08-29T05:29:59.874Z,570.7
2022-08-29T05:31:02.472Z,571
2022-08-29T05:32:05.087Z,570.8
2022-08-29T05:33:07.291Z,570.6
2022-08-29T05:35:14.775Z,570.5
2022-08-29T05:36:16.993Z,570.5
2022-08-29T05:37:19.482Z,570.7
2022-08-29T05:38:21.409Z,570.6
2022-08-29T05:39:23.891Z,570.3
2022-08-29T05:40:26.932Z,570.4
2022-08-29T05:41:29.172Z,570.3
2022-08-29T05:42:32.510Z,570.4
2022-08-29T05:43:34.990Z,570.2
2022-08-29T05:44:37.408Z,570.2
2022-08-29T05:45:39.890Z,570.4
2022-08-29T05:46:42.719Z,570.3
2022-08-29T05:47:45.243Z,570.1
2022-08-29T05:48:47.728Z,570.6
2022-08-29T05:49:49.927Z,570.8
2022-08-29T05:50:52.122Z,570.9
2022-08-29T05:51:54.306Z,570.8
2022-08-29T05:52:56.514Z,570.6
2022-08-29T05:53:58.708Z,570.6
2022-08-29T05:55:00.885Z,570.4
2022-08-29T05:56:03.079Z,570.3
2022-08-29T05:57:05.280Z,570.1
2022-08-29T05:58:07.948Z,570.2
2022-08-29T06:00:15.496Z,570
2022-08-29T06:01:18.096Z,569.9
2022-08-29T06:02:21.521Z,569.6
2022-08-29T06:03:24.473Z,569.8
2022-08-29T06:04:26.494Z,569.8
2022-08-29T06:05:28.968Z,569.8
2022-08-29T06:06:31.446Z,569.9
2022-08-29T06:07:34.476Z,569.9
2022-08-29T06:08:36.737Z,569.8
2022-08-29T06:09:38.945Z,569.6
2022-08-29T06:10:41.431Z,570
2022-08-29T06:11:43.897Z,569.9
2022-08-29T06:12:46.417Z,569.7
2022-08-29T06:13:48.897Z,569.8
2022-08-29T06:14:52.184Z,569.9
2022-08-29T06:15:54.802Z,570
2022-08-29T06:16:57.306Z,570.2
2022-08-29T06:17:59.779Z,570.3
2022-08-29T06:19:02.254Z,569.9
2022-08-29T06:20:04.723Z,570.2
2022-08-29T06:21:07.204Z,570.2
2022-08-29T06:23:14.696Z,570.4
2022-08-29T06:24:17.162Z,570.1
2022-08-29T06:26:24.633Z,570.2
2022-08-29T06:27:26.828Z,570.2
2022-08-29T06:28:29.302Z,569.8
2022-08-29T06:29:31.498Z,570
2022-08-29T06:30:33.431Z,569.8
2022-08-29T06:31:35.903Z,569.6
2022-08-29T06:32:38.100Z,569.5
2022-08-29T06:33:40.050Z,569.7
2022-08-29T06:34:41.722Z,569.5
2022-08-29T06:35:43.919Z,569.4
2022-08-29T06:36:46.421Z,569.3
2022-08-29T06:37:48.622Z,569.4
2022-08-29T06:38:51.098Z,569.1
2022-08-29T06:39:53.571Z,569.1
2022-08-29T06:40:55.774Z,569.6
2022-08-29T06:41:57.699Z,569.3
2022-08-29T06:42:59.070Z,569.2
2022-08-29T06:44:01.570Z,568.9
2022-08-29T06:45:03.840Z,568.7
2022-08-29T06:46:05.775Z,568.9
2022-08-29T06:47:08.002Z,568.7
2022-08-29T06:49:15.970Z,568.7
2022-08-29T06:50:18.473Z,568.8
2022-08-29T06:51:20.958Z,568.4
2022-08-29T06:52:23.450Z,568.7
2022-08-29T06:54:30.655Z,568.1
2022-08-29T06:55:34.351Z,568.3
2022-08-29T06:57:42.869Z,568.4
2022-08-29T06:58:45.060Z,568.3
2022-08-29T06:59:47.539Z,568.1
2022-08-29T07:00:51.820Z,568.2
2022-08-29T07:01:54.730Z,567.8
2022-08-29T07:02:57.670Z,567.9
2022-08-29T07:03:59.613Z,567.3
2022-08-29T07:05:01.544Z,567.7
2022-08-29T07:06:04.054Z,567.6
2022-08-29T07:07:06.526Z,567.5
2022-08-29T07:08:08.444Z,567.6
2022-08-29T07:09:10.646Z,567.8
2022-08-29T07:10:12.878Z,567.4
2022-08-29T07:11:15.077Z,567.6
2022-08-29T07:12:17.555Z,567.8
2022-08-29T07:13:20.042Z,567.7
2022-08-29T07:14:22.535Z,567.8
2022-08-29T07:15:25.021Z,567.4
2022-08-29T07:16:28.853Z,567.8
2022-08-29T07:17:31.057Z,567.5
2022-08-29T07:18:33.535Z,567.3
2022-08-29T07:20:42.359Z,567.4
2022-08-29T07:21:44.276Z,567.6
2022-08-29T07:22:46.782Z,567.3
2022-08-29T07:23:49.259Z,567.3
2022-08-29T07:24:51.755Z,567.5
2022-08-29T07:25:54.269Z,567.6
2022-08-29T07:26:56.743Z,567.5
2022-08-29T07:27:58.683Z,567.9
2022-08-29T07:30:07.158Z,567.5
2022-08-29T07:31:10.188Z,567.4
2022-08-29T07:32:12.748Z,567.2
2022-08-29T07:33:16.335Z,567.3
2022-08-29T07:36:28.367Z,567
2022-08-29T07:37:30.845Z,566.8
2022-08-29T07:39:39.038Z,566.6
2022-08-29T07:40:41.979Z,566.5
2022-08-29T07:41:44.465Z,566.7
2022-08-29T07:42:46.940Z,566.7
2022-08-29T07:43:49.153Z,566.6
2022-08-29T07:44:51.353Z,566.6
2022-08-29T07:45:53.867Z,566.6
2022-08-29T07:46:56.122Z,566.2
2022-08-29T07:47:58.598Z,566.6
2022-08-29T07:49:01.098Z,566.2
2022-08-29T07:50:03.579Z,566.1
2022-08-29T07:52:10.759Z,566.3
2022-08-29T07:53:13.136Z,566.2
2022-08-29T07:54:15.621Z,566.1
2022-08-29T07:55:18.099Z,566.3
2022-08-29T07:56:20.023Z,566
2022-08-29T07:57:22.489Z,566.2
2022-08-29T07:58:24.968Z,566.7
2022-08-29T07:59:27.160Z,565.9
2022-08-29T08:00:29.362Z,566.1
2022-08-29T08:01:32.327Z,565.8
2022-08-29T08:02:35.197Z,565.5
2022-08-29T08:03:38.463Z,565.4
2022-08-29T08:04:41.171Z,565.9
2022-08-29T08:05:45.978Z,565.6
2022-08-29T08:06:49.569Z,565.6
2022-08-29T08:08:57.059Z,566.2
2022-08-29T08:09:59.534Z,565.7
2022-08-29T08:11:02.023Z,565.6
2022-08-29T08:13:09.605Z,565.7
2022-08-29T08:14:12.078Z,565.3
2022-08-29T08:15:14.286Z,564.8
2022-08-29T08:16:17.308Z,564.9
2022-08-29T08:17:19.555Z,565.2
2022-08-29T08:18:22.027Z,565.3
2022-08-29T08:19:24.523Z,565.4
2022-08-29T08:21:32.498Z,565.3
2022-08-29T08:22:34.699Z,565.6
2022-08-29T08:23:36.624Z,565.6
2022-08-29T08:24:39.096Z,565.6
2022-08-29T08:25:41.307Z,565.5
2022-08-29T08:26:43.777Z,565.7
2022-08-29T08:27:45.978Z,565.7
2022-08-29T08:28:47.635Z,565.3
2022-08-29T08:29:51.124Z,565.2
2022-08-29T08:30:55.439Z,565.1
2022-08-29T08:31:57.963Z,565.6
2022-08-29T08:32:59.888Z,565.2
2022-08-29T08:34:02.623Z,565.3
2022-08-29T08:35:05.278Z,565.6
2022-08-29T08:36:07.215Z,565.2
2022-08-29T08:37:09.488Z,565.4
2022-08-29T08:38:11.965Z,565.2
2022-08-29T08:39:14.180Z,565.4
2022-08-29T08:40:17.014Z,565.1
2022-08-29T08:41:25.169Z,565.1
2022-08-29T08:42:28.189Z,565
2022-08-29T08:43:30.122Z,565.2
2022-08-29T08:45:38.110Z,564.8
2022-08-29T08:46:40.596Z,564.9
2022-08-29T08:47:42.807Z,565
2022-08-29T08:48:45.289Z,565.2
2022-08-29T08:49:47.492Z,565.1
2022-08-29T08:51:54.666Z,565
2022-08-29T08:52:56.294Z,564.9
2022-08-29T08:53:58.224Z,564.9
2022-08-29T08:55:00.151Z,565.4
2022-08-29T08:56:02.343Z,565.2
2022-08-29T08:57:04.552Z,565.1
2022-08-29T08:58:07.031Z,565
2022-08-29T08:59:09.216Z,565
2022-08-29T09:00:11.519Z,564.9
2022-08-29T09:01:13.839Z,565.5
2022-08-29T09:02:16.805Z,565.4
2022-08-29T09:03:18.988Z,565.2
2022-08-29T09:04:21.199Z,565.1
2022-08-29T09:05:23.684Z,565.2
2022-08-29T09:06:26.234Z,565.2
2022-08-29T09:07:28.438Z,565.4
2022-08-29T09:08:34.599Z,565.2
2022-08-29T09:09:38.120Z,565.4
2022-08-29T09:10:40.607Z,565.5
2022-08-29T09:11:43.207Z,565.1
2022-08-29T09:13:51.343Z,565.2
2022-08-29T09:14:53.536Z,565.4
2022-08-29T09:15:56.012Z,565.1
2022-08-29T09:16:58.388Z,565.1
2022-08-29T09:18:00.885Z,565.3
2022-08-29T09:19:03.457Z,565.3
2022-08-29T09:20:05.389Z,565.1
2022-08-29T09:22:12.582Z,565.5
2022-08-29T09:23:15.818Z,565.5
2022-08-29T09:24:18.115Z,565.6
2022-08-29T09:25:21.012Z,565.4
2022-08-29T09:26:24.656Z,565.3
2022-08-29T09:27:26.858Z,565.7
2022-08-29T09:29:34.335Z,565.6
2022-08-29T09:30:36.810Z,565.8
2022-08-29T09:31:39.396Z,565.6
2022-08-29T09:32:41.915Z,565.7
2022-08-29T09:33:45.476Z,565.5
2022-08-29T09:35:52.971Z,565.4
2022-08-29T09:36:55.444Z,565.8
2022-08-29T09:37:57.678Z,565.7
2022-08-29T09:38:59.901Z,565.2
2022-08-29T09:40:02.481Z,565.3
2022-08-29T09:41:04.984Z,565.3
2022-08-29T09:42:07.490Z,565.2
2022-08-29T09:43:10.090Z,565.3
2022-08-29T09:44:12.315Z,565.3
2022-08-29T09:45:14.505Z,565.4
2022-08-29T09:46:17.057Z,565.5
2022-08-29T09:47:20.865Z,565.2
2022-08-29T09:48:23.339Z,565.3
2022-08-29T09:49:25.546Z,565.6
2022-08-29T09:50:27.796Z,565.8
2022-08-29T09:51:29.776Z,565.6
2022-08-29T09:52:31.988Z,566
2022-08-29T09:53:34.478Z,566.2
2022-08-29T09:54:36.683Z,566
2022-08-29T09:55:39.177Z,566.2
2022-08-29T09:56:41.674Z,565.9
2022-08-29T09:57:44.174Z,566.1
2022-08-29T09:58:46.654Z,566.3
2022-08-29T10:00:54.125Z,566.5
2022-08-29T10:01:56.918Z,566.1
2022-08-29T10:03:00.350Z,566.4
2022-08-29T10:04:02.831Z,566.1
2022-08-29T10:06:11.317Z,565.8
2022-08-29T10:07:13.532Z,566
2022-08-29T10:08:15.739Z,565.9
2022-08-29T10:09:18.231Z,566
2022-08-29T10:10:20.722Z,566.3
2022-08-29T10:11:22.929Z,566.3
2022-08-29T10:12:25.135Z,566.7
2022-08-29T10:14:33.222Z,566.5
2022-08-29T10:16:40.800Z,566.3
2022-08-29T10:17:43.388Z,566.5
2022-08-29T10:18:45.600Z,566.9
2022-08-29T10:19:48.089Z,566.6
2022-08-29T10:20:50.568Z,566.8
2022-08-29T10:21:54.562Z,566.5
2022-08-29T10:22:56.818Z,566.6
2022-08-29T10:23:59.323Z,566.5
2022-08-29T10:25:01.814Z,566.3
2022-08-29T10:26:04.312Z,566.2
2022-08-29T10:27:06.536Z,566.1
2022-08-29T10:28:08.451Z,566.4
2022-08-29T10:29:10.652Z,566.2
2022-08-29T10:30:12.840Z,566.1
2022-08-29T10:31:15.630Z,565.9
2022-08-29T10:32:17.837Z,566.2
2022-08-29T10:33:19.788Z,566.1
2022-08-29T10:34:22.009Z,566.2
2022-08-29T10:35:24.527Z,566.2
2022-08-29T10:36:26.475Z,566
2022-08-29T10:37:28.988Z,566.4
2022-08-29T10:38:31.488Z,566.2
2022-08-29T10:39:33.682Z,565.9
2022-08-29T10:40:37.953Z,565.8
2022-08-29T10:42:49.855Z,566.3
2022-08-29T10:43:51.759Z,566.3
2022-08-29T10:44:54.243Z,566.2
2022-08-29T10:45:56.601Z,566.1
2022-08-29T10:46:58.848Z,566.2
2022-08-29T10:48:01.054Z,566.1
2022-08-29T10:49:03.543Z,566
2022-08-29T10:51:12.243Z,565.9
2022-08-29T10:52:14.438Z,565.8
2022-08-29T10:53:16.671Z,565.7
2022-08-29T10:54:18.873Z,566.1
2022-08-29T10:55:20.807Z,565.9
2022-08-29T10:56:23.005Z,566.1
2022-08-29T10:57:25.490Z,566.3
2022-08-29T10:58:27.968Z,566.2
2022-08-29T10:59:30.179Z,565.8
2022-08-29T11:00:32.658Z,566.1
2022-08-29T11:01:35.325Z,566.6
2022-08-29T11:02:37.384Z,566.1
2022-08-29T11:03:39.183Z,566.2
2022-08-29T11:04:41.671Z,566.2
2022-08-29T11:05:44.163Z,566.3
2022-08-29T11:06:46.660Z,566.7
2022-08-29T11:07:48.576Z,566.7
2022-08-29T11:08:50.798Z,566.7
2022-08-29T11:09:53.285Z,566.8
2022-08-29T11:10:55.770Z,566.7
2022-08-29T11:11:58.251Z,567
2022-08-29T11:13:00.735Z,567
2022-08-29T11:15:07.941Z,567.3
2022-08-29T11:16:10.516Z,567.1
2022-08-29T11:17:12.506Z,567.1
2022-08-29T11:20:24.430Z,567.1
2022-08-29T11:22:31.924Z,567.2
2022-08-29T11:23:34.447Z,566.8
2022-08-29T11:24:39.225Z,567
2022-08-29T11:25:41.715Z,566.8
2022-08-29T11:26:43.369Z,567
2022-08-29T11:27:45.849Z,566.9
2022-08-29T11:28:48.081Z,567
2022-08-29T11:29:50.553Z,566.9
2022-08-29T11:30:53.035Z,566.7
2022-08-29T11:31:56.029Z,566.8
2022-08-29T11:32:58.273Z,567.1
2022-08-29T11:34:00.496Z,567.1
2022-08-29T11:35:02.978Z,566.8
2022-08-29T11:36:07.362Z,567
2022-08-29T11:37:09.569Z,566.5
2022-08-29T11:38:11.502Z,566.7
2022-08-29T11:39:13.697Z,567
2022-08-29T11:40:17.395Z,566.9
2022-08-29T11:43:29.926Z,567.2
2022-08-29T11:44:31.853Z,567.7
2022-08-29T11:46:39.596Z,567.5
2022-08-29T11:47:43.305Z,567.8
2022-08-29T11:48:45.227Z,567.3
2022-08-29T11:49:47.433Z,567.6
2022-08-29T11:50:50.160Z,567.7
2022-08-29T11:51:52.674Z,567.6
2022-08-29T11:52:55.171Z,567.7
2022-08-29T11:53:57.368Z,567.7
2022-08-29T11:54:59.909Z,567.8
2022-08-29T11:56:02.096Z,567.7
2022-08-29T11:57:04.428Z,567.9
2022-08-29T11:59:11.623Z,567.9
2022-08-29T12:00:15.054Z,567.7
2022-08-29T12:02:22.509Z,567.8
2022-08-29T12:04:30.192Z,567.8
2022-08-29T12:05:32.696Z,567.6
2022-08-29T12:06:35.203Z,568
2022-08-29T12:07:37.673Z,568.3
2022-08-29T12:08:40.487Z,567.9
2022-08-29T12:09:42.694Z,567.9
2022-08-29T12:10:45.183Z,567.9
2022-08-29T12:11:47.653Z,567.6
2022-08-29T12:13:55.359Z,568.1
2022-08-29T12:14:58.488Z,568
2022-08-29T12:16:00.953Z,568.2
2022-08-29T12:17:02.862Z,568.3
2022-08-29T12:18:05.943Z,568.1
2022-08-29T12:19:07.872Z,568.2
2022-08-29T12:20:10.082Z,568.3
2022-08-29T12:21:11.994Z,568.4
2022-08-29T12:23:19.890Z,568.7
2022-08-29T12:24:22.368Z,568.4
2022-08-29T12:25:24.569Z,568.3
2022-08-29T12:26:27.046Z,568.3
2022-08-29T12:27:29.584Z,568.4
2022-08-29T12:28:32.220Z,568.4
2022-08-29T12:30:39.422Z,568.6
2022-08-29T12:32:48.899Z,568.5
2022-08-29T12:33:51.377Z,568.5
2022-08-29T12:34:54.119Z,568.2
2022-08-29T12:35:56.030Z,568.4
2022-08-29T12:36:58.514Z,568.4
2022-08-29T12:39:05.853Z,568.2
2022-08-29T12:40:08.470Z,568.3
2022-08-29T12:41:10.429Z,568.6
2022-08-29T12:42:12.637Z,568.5
2022-08-29T12:43:15.625Z,568.6
2022-08-29T12:44:18.185Z,568.6
2022-08-29T12:45:20.680Z,568.3
2022-08-29T12:46:23.562Z,568.6
2022-08-29T12:47:26.057Z,568.4
2022-08-29T12:48:28.557Z,568.5
2022-08-29T12:49:31.515Z,568.3
2022-08-29T12:50:33.989Z,568.2
2022-08-29T12:51:36.484Z,568.6
2022-08-29T12:52:38.964Z,568.8
2022-08-29T12:53:41.446Z,569.1
2022-08-29T12:55:48.911Z,569.4
2022-08-29T12:56:51.401Z,569.6
2022-08-29T12:57:53.882Z,569.3
2022-08-29T12:58:56.369Z,569.4
2022-08-29T12:59:58.872Z,569.8
2022-08-29T13:01:01.342Z,569.8
2022-08-29T13:02:03.563Z,570.1
2022-08-29T13:04:11.056Z,569.9
2022-08-29T13:05:12.961Z,570.2
2022-08-29T13:06:15.460Z,569.9
2022-08-29T13:07:17.708Z,570.3
2022-08-29T13:08:21.786Z,570.4
2022-08-29T13:09:24.281Z,570.3
2022-08-29T13:10:29.561Z,570.4
2022-08-29T13:11:31.474Z,570.9
2022-08-29T13:12:33.965Z,570.6
2022-08-29T13:13:35.876Z,570.6
2022-08-29T13:14:38.413Z,570.4
2022-08-29T13:15:41.179Z,570.8
2022-08-29T13:16:43.152Z,570.4
2022-08-29T13:17:45.375Z,570.4
2022-08-29T13:20:57.582Z,570
2022-08-29T13:22:00.060Z,570.3
2022-08-29T13:23:02.546Z,570.5
2022-08-29T13:24:05.022Z,570.3
2022-08-29T13:25:06.958Z,570.3
2022-08-29T13:26:09.148Z,570.4
2022-08-29T13:27:11.330Z,570.6
2022-08-29T13:28:16.603Z,570.9
2022-08-29T13:29:19.151Z,570.9
2022-08-29T13:30:21.374Z,570.7
2022-08-29T13:31:24.044Z,570.7
2022-08-29T13:32:26.103Z,571.1
2022-08-29T13:34:33.780Z,571.3
2022-08-29T13:35:38.300Z,571.1
2022-08-29T13:36:44.991Z,571
2022-08-29T13:37:47.184Z,571.3
2022-08-29T13:38:49.669Z,571.4
2022-08-29T13:39:52.144Z,571.5
2022-08-29T13:40:54.630Z,572
2022-08-29T13:41:57.541Z,572.1
2022-08-29T13:42:59.747Z,572
2022-08-29T13:44:02.229Z,572
2022-08-29T13:45:04.732Z,572.6
2022-08-29T13:47:14.615Z,572.5
2022-08-29T13:48:16.541Z,572.3
2022-08-29T13:49:18.751Z,572.2
2022-08-29T13:50:20.670Z,572.6
2022-08-29T13:51:23.164Z,572.5
2022-08-29T13:53:30.643Z,572.5
2022-08-29T13:54:33.209Z,572.6
2022-08-29T13:55:35.420Z,572.1
2022-08-29T13:56:38.710Z,572.1
2022-08-29T13:57:41.192Z,572.1
2022-08-29T13:58:43.677Z,572.4
2022-08-29T13:59:46.171Z,572.6
2022-08-29T14:00:48.305Z,572.7
2022-08-29T14:02:56.159Z,572.6
2022-08-29T14:05:06.460Z,572.6
2022-08-29T14:06:08.381Z,572.8
2022-08-29T14:07:10.875Z,572.9
2022-08-29T14:08:13.374Z,572.9
2022-08-29T14:09:15.846Z,573.3
2022-08-29T14:10:18.332Z,573.1
2022-08-29T14:11:20.816Z,573.5
2022-08-29T14:13:27.729Z,573.8
2022-08-29T14:14:29.928Z,574
2022-08-29T14:15:32.421Z,573.8
2022-08-29T14:16:34.635Z,574.2
2022-08-29T14:17:36.850Z,574.2
2022-08-29T14:18:39.327Z,574.3
2022-08-29T14:19:41.550Z,574.6
2022-08-29T14:20:45.418Z,574.4
2022-08-29T14:21:47.638Z,574.8
2022-08-29T14:22:49.891Z,574.5
2022-08-29T14:23:52.100Z,574.5
2022-08-29T14:24:54.305Z,574.6
2022-08-29T14:25:56.504Z,574.4
2022-08-29T14:28:04.014Z,575
2022-08-29T14:29:06.226Z,575.1
2022-08-29T14:30:08.504Z,575.2
2022-08-29T14:31:11.004Z,575.2
2022-08-29T14:32:13.237Z,575.4
2022-08-29T14:34:23.973Z,575.8
2022-08-29T14:36:33.705Z,575.7
2022-08-29T14:37:35.917Z,575.6
2022-08-29T14:38:38.123Z,575.7
2022-08-29T14:39:42.421Z,575.6
2022-08-29T14:40:45.210Z,576
2022-08-29T14:41:47.447Z,575.7
2022-08-29T14:42:49.676Z,575.7
2022-08-29T14:43:52.160Z,575.9
2022-08-29T14:44:54.657Z,575.8
2022-08-29T14:45:57.421Z,575.8
2022-08-29T14:46:59.919Z,575.3
2022-08-29T14:48:02.395Z,575.5
2022-08-29T14:49:04.882Z,575.3
2022-08-29T14:50:07.655Z,575.6
2022-08-29T14:51:10.148Z,575.5
2022-08-29T14:52:12.359Z,575.8
2022-08-29T14:53:14.602Z,575.8
2022-08-29T14:54:17.085Z,575.2
2022-08-29T14:55:19.587Z,575.2
2022-08-29T14:57:26.786Z,575.4
2022-08-29T14:59:35.240Z,575.5